sensor_id;sensor_type;location;lat;lon;timestamp;P1;durP1;ratioP1;P2;durP2;ratioP2
56541;SDS011;42438;53.174;6.730;2022-09-09T00:01:00;15.32;;;9.25;;
56541;SDS011;42438;53.174;6.730;2022-09-09T00:03:48;16.63;;;8.75;;
56541;SDS011;42438;53.174;6.730;2022-09-09T00:06:28;14.02;;;8.43;;
56541;SDS011;42438;53.174;6.730;2022-09-09T00:09:12;15.07;;;8.32;;
56541;SDS011;42438;53.174;6.730;2022-09-09T00:11:52;13.85;;;8.82;;
56541;SDS011;42438;53.174;6.730;2022-09-09T00:17:04;14.68;;;8.32;;
56541;SDS011;42438;53.174;6.730;2022-09-09T00:20:14;14.32;;;7.75;;
56541;SDS011;42438;53.174;6.730;2022-09-09T00:22:47;10.48;;;7.05;;
56541;SDS011;42438;53.174;6.730;2022-09-09T00:25:29;17.08;;;7.50;;
56541;SDS011;42438;53.174;6.730;2022-09-09T00:28:12;11.63;;;7.80;;
56541;SDS011;42438;53.174;6.730;2022-09-09T00:30:48;13.38;;;7.63;;
56541;SDS011;42438;53.174;6.730;2022-09-09T00:33:19;12.65;;;8.05;;
56541;SDS011;42438;53.174;6.730;2022-09-09T00:35:59;17.95;;;7.70;;
56541;SDS011;42438;53.174;6.730;2022-09-09T00:58:24;14.00;;;8.25;;
56541;SDS011;42438;53.174;6.730;2022-09-09T01:06:24;14.90;;;8.13;;
56541;SDS011;42438;53.174;6.730;2022-09-09T01:11:59;12.85;;;8.35;;
56541;SDS011;42438;53.174;6.730;2022-09-09T01:17:27;13.70;;;7.13;;
56541;SDS011;42438;53.174;6.730;2022-09-09T01:20:17;11.75;;;7.30;;
56541;SDS011;42438;53.174;6.730;2022-09-09T01:28:59;14.57;;;7.28;;
56541;SDS011;42438;53.174;6.730;2022-09-09T01:34:36;11.20;;;7.53;;
56541;SDS011;42438;53.174;6.730;2022-09-09T01:37:10;13.77;;;7.53;;
56541;SDS011;42438;53.174;6.730;2022-09-09T01:39:43;13.93;;;8.05;;
56541;SDS011;42438;53.174;6.730;2022-09-09T01:42:15;12.60;;;7.28;;
56541;SDS011;42438;53.174;6.730;2022-09-09T01:44:46;15.13;;;7.95;;
56541;SDS011;42438;53.174;6.730;2022-09-09T01:47:17;14.43;;;8.00;;
56541;SDS011;42438;53.174;6.730;2022-09-09T01:49:47;16.50;;;8.10;;
56541;SDS011;42438;53.174;6.730;2022-09-09T01:52:18;14.55;;;7.68;;
56541;SDS011;42438;53.174;6.730;2022-09-09T01:54:49;16.05;;;7.63;;
56541;SDS011;42438;53.174;6.730;2022-09-09T01:57:24;14.52;;;8.02;;
56541;SDS011;42438;53.174;6.730;2022-09-09T02:00:22;11.52;;;7.28;;
56541;SDS011;42438;53.174;6.730;2022-09-09T02:03:12;13.88;;;7.65;;
56541;SDS011;42438;53.174;6.730;2022-09-09T02:05:59;16.02;;;8.57;;
56541;SDS011;42438;53.174;6.730;2022-09-09T02:09:01;15.07;;;7.82;;
56541;SDS011;42438;53.174;6.730;2022-09-09T02:11:35;13.23;;;7.78;;
56541;SDS011;42438;53.174;6.730;2022-09-09T02:14:11;13.70;;;7.85;;
56541;SDS011;42438;53.174;6.730;2022-09-09T02:17:28;13.07;;;7.55;;
56541;SDS011;42438;53.174;6.730;2022-09-09T02:19:42;14.10;;;7.88;;
56541;SDS011;42438;53.174;6.730;2022-09-09T02:22:24;13.82;;;7.57;;
56541;SDS011;42438;53.174;6.730;2022-09-09T02:24:58;12.65;;;7.47;;
56541;SDS011;42438;53.174;6.730;2022-09-09T02:27:30;14.05;;;8.18;;
56541;SDS011;42438;53.174;6.730;2022-09-09T02:30:01;12.27;;;7.07;;
56541;SDS011;42438;53.174;6.730;2022-09-09T02:32:34;12.38;;;7.45;;
56541;SDS011;42438;53.174;6.730;2022-09-09T02:35:08;14.88;;;7.72;;
56541;SDS011;42438;53.174;6.730;2022-09-09T02:37:42;14.48;;;7.68;;
56541;SDS011;42438;53.174;6.730;2022-09-09T02:40:16;12.15;;;7.55;;
56541;SDS011;42438;53.174;6.730;2022-09-09T02:42:47;13.82;;;7.03;;
56541;SDS011;42438;53.174;6.730;2022-09-09T02:45:19;14.68;;;7.40;;
56541;SDS011;42438;53.174;6.730;2022-09-09T02:51:15;13.57;;;7.47;;
56541;SDS011;42438;53.174;6.730;2022-09-09T02:53:50;13.30;;;6.78;;
56541;SDS011;42438;53.174;6.730;2022-09-09T02:56:31;13.93;;;7.13;;
56541;SDS011;42438;53.174;6.730;2022-09-09T02:59:07;13.10;;;6.75;;
56541;SDS011;42438;53.174;6.730;2022-09-09T03:01:38;10.63;;;6.22;;
56541;SDS011;42438;53.174;6.730;2022-09-09T03:04:10;13.70;;;6.47;;
56541;SDS011;42438;53.174;6.730;2022-09-09T03:06:40;15.02;;;6.82;;
56541;SDS011;42438;53.174;6.730;2022-09-09T03:09:11;13.82;;;7.07;;
56541;SDS011;42438;53.174;6.730;2022-09-09T03:11:42;11.05;;;6.15;;
56541;SDS011;42438;53.174;6.730;2022-09-09T03:14:12;15.15;;;6.53;;
56541;SDS011;42438;53.174;6.730;2022-09-09T03:16:43;11.65;;;6.32;;
56541;SDS011;42438;53.174;6.730;2022-09-09T03:19:14;9.82;;;5.13;;
56541;SDS011;42438;53.174;6.730;2022-09-09T03:21:45;12.38;;;6.90;;
56541;SDS011;42438;53.174;6.730;2022-09-09T03:24:16;11.10;;;5.90;;
56541;SDS011;42438;53.174;6.730;2022-09-09T03:26:46;8.10;;;5.18;;
56541;SDS011;42438;53.174;6.730;2022-09-09T03:29:17;11.90;;;6.00;;
56541;SDS011;42438;53.174;6.730;2022-09-09T03:31:48;8.63;;;4.97;;
56541;SDS011;42438;53.174;6.730;2022-09-09T03:34:20;8.75;;;5.32;;
56541;SDS011;42438;53.174;6.730;2022-09-09T03:36:51;9.77;;;5.25;;
56541;SDS011;42438;53.174;6.730;2022-09-09T03:39:22;13.60;;;5.57;;
56541;SDS011;42438;53.174;6.730;2022-09-09T03:41:52;8.25;;;4.97;;
56541;SDS011;42438;53.174;6.730;2022-09-09T03:44:23;11.32;;;4.80;;
56541;SDS011;42438;53.174;6.730;2022-09-09T03:46:53;7.57;;;4.35;;
56541;SDS011;42438;53.174;6.730;2022-09-09T03:49:24;8.05;;;4.43;;
56541;SDS011;42438;53.174;6.730;2022-09-09T03:51:56;7.95;;;3.75;;
56541;SDS011;42438;53.174;6.730;2022-09-09T03:54:28;6.55;;;3.88;;
56541;SDS011;42438;53.174;6.730;2022-09-09T03:56:58;7.40;;;3.92;;
56541;SDS011;42438;53.174;6.730;2022-09-09T03:59:29;11.13;;;3.50;;
56541;SDS011;42438;53.174;6.730;2022-09-09T04:02:00;7.05;;;2.53;;
56541;SDS011;42438;53.174;6.730;2022-09-09T04:04:32;5.75;;;2.90;;
56541;SDS011;42438;53.174;6.730;2022-09-09T04:07:02;9.45;;;3.22;;
56541;SDS011;42438;53.174;6.730;2022-09-09T04:09:36;8.75;;;3.03;;
56541;SDS011;42438;53.174;6.730;2022-09-09T04:12:06;6.28;;;2.58;;
56541;SDS011;42438;53.174;6.730;2022-09-09T04:14:37;11.90;;;3.20;;
56541;SDS011;42438;53.174;6.730;2022-09-09T04:17:08;8.93;;;2.95;;
56541;SDS011;42438;53.174;6.730;2022-09-09T04:19:38;8.85;;;3.08;;
56541;SDS011;42438;53.174;6.730;2022-09-09T04:22:09;9.23;;;3.00;;
56541;SDS011;42438;53.174;6.730;2022-09-09T04:24:39;8.70;;;3.08;;
56541;SDS011;42438;53.174;6.730;2022-09-09T04:27:10;7.28;;;3.90;;
56541;SDS011;42438;53.174;6.730;2022-09-09T04:29:41;9.07;;;3.88;;
56541;SDS011;42438;53.174;6.730;2022-09-09T04:32:11;7.57;;;3.90;;
56541;SDS011;42438;53.174;6.730;2022-09-09T04:34:42;7.82;;;3.92;;
56541;SDS011;42438;53.174;6.730;2022-09-09T04:37:12;11.73;;;4.35;;
56541;SDS011;42438;53.174;6.730;2022-09-09T04:39:44;8.73;;;4.57;;
56541;SDS011;42438;53.174;6.730;2022-09-09T04:42:15;9.13;;;4.20;;
56541;SDS011;42438;53.174;6.730;2022-09-09T04:44:47;7.85;;;4.38;;
56541;SDS011;42438;53.174;6.730;2022-09-09T04:47:18;6.97;;;3.92;;
56541;SDS011;42438;53.174;6.730;2022-09-09T04:49:48;8.73;;;4.47;;
56541;SDS011;42438;53.174;6.730;2022-09-09T04:52:20;8.02;;;4.45;;
56541;SDS011;42438;53.174;6.730;2022-09-09T04:54:51;11.40;;;4.32;;
56541;SDS011;42438;53.174;6.730;2022-09-09T04:57:23;9.25;;;4.38;;
56541;SDS011;42438;53.174;6.730;2022-09-09T04:59:54;7.63;;;4.05;;
56541;SDS011;42438;53.174;6.730;2022-09-09T05:02:25;8.15;;;4.60;;
56541;SDS011;42438;53.174;6.730;2022-09-09T05:04:56;12.23;;;4.93;;
56541;SDS011;42438;53.174;6.730;2022-09-09T05:07:27;9.32;;;5.05;;
56541;SDS011;42438;53.174;6.730;2022-09-09T05:09:58;11.00;;;4.78;;
56541;SDS011;42438;53.174;6.730;2022-09-09T05:12:29;9.27;;;4.85;;
56541;SDS011;42438;53.174;6.730;2022-09-09T05:15:00;7.50;;;4.55;;
56541;SDS011;42438;53.174;6.730;2022-09-09T05:17:30;9.20;;;4.55;;
56541;SDS011;42438;53.174;6.730;2022-09-09T05:20:01;11.32;;;5.47;;
56541;SDS011;42438;53.174;6.730;2022-09-09T05:22:33;10.77;;;5.70;;
56541;SDS011;42438;53.174;6.730;2022-09-09T05:25:04;16.52;;;6.22;;
56541;SDS011;42438;53.174;6.730;2022-09-09T05:27:35;10.35;;;5.78;;
56541;SDS011;42438;53.174;6.730;2022-09-09T05:30:05;13.10;;;6.03;;
56541;SDS011;42438;53.174;6.730;2022-09-09T05:32:36;12.23;;;6.03;;
56541;SDS011;42438;53.174;6.730;2022-09-09T05:35:07;10.15;;;5.70;;
56541;SDS011;42438;53.174;6.730;2022-09-09T05:37:38;12.05;;;6.40;;
56541;SDS011;42438;53.174;6.730;2022-09-09T05:40:09;11.38;;;5.90;;
56541;SDS011;42438;53.174;6.730;2022-09-09T05:42:41;14.70;;;6.65;;
56541;SDS011;42438;53.174;6.730;2022-09-09T05:45:11;10.45;;;6.47;;
56541;SDS011;42438;53.174;6.730;2022-09-09T05:47:42;12.70;;;6.82;;
56541;SDS011;42438;53.174;6.730;2022-09-09T05:50:12;12.88;;;7.07;;
56541;SDS011;42438;53.174;6.730;2022-09-09T05:52:44;20.20;;;7.55;;
56541;SDS011;42438;53.174;6.730;2022-09-09T05:55:15;19.85;;;7.45;;
56541;SDS011;42438;53.174;6.730;2022-09-09T05:57:48;16.05;;;8.18;;
56541;SDS011;42438;53.174;6.730;2022-09-09T06:00:20;17.17;;;8.00;;
56541;SDS011;42438;53.174;6.730;2022-09-09T06:02:51;14.32;;;7.68;;
56541;SDS011;42438;53.174;6.730;2022-09-09T06:05:22;12.20;;;7.22;;
56541;SDS011;42438;53.174;6.730;2022-09-09T06:07:54;12.63;;;7.20;;
56541;SDS011;42438;53.174;6.730;2022-09-09T06:10:25;13.85;;;7.18;;
56541;SDS011;42438;53.174;6.730;2022-09-09T06:12:56;12.75;;;6.93;;
56541;SDS011;42438;53.174;6.730;2022-09-09T06:15:26;13.13;;;7.55;;
56541;SDS011;42438;53.174;6.730;2022-09-09T06:17:57;14.40;;;7.65;;
56541;SDS011;42438;53.174;6.730;2022-09-09T06:20:28;13.25;;;7.13;;
56541;SDS011;42438;53.174;6.730;2022-09-09T06:23:00;11.35;;;6.43;;
56541;SDS011;42438;53.174;6.730;2022-09-09T06:25:31;17.33;;;7.65;;
56541;SDS011;42438;53.174;6.730;2022-09-09T06:28:04;17.25;;;7.50;;
56541;SDS011;42438;53.174;6.730;2022-09-09T06:30:34;22.50;;;7.40;;
56541;SDS011;42438;53.174;6.730;2022-09-09T06:33:06;15.45;;;6.40;;
56541;SDS011;42438;53.174;6.730;2022-09-09T06:35:36;13.57;;;6.85;;
56541;SDS011;42438;53.174;6.730;2022-09-09T06:38:07;12.07;;;6.35;;
56541;SDS011;42438;53.174;6.730;2022-09-09T06:40:38;11.48;;;6.68;;
56541;SDS011;42438;53.174;6.730;2022-09-09T06:43:09;12.50;;;6.63;;
56541;SDS011;42438;53.174;6.730;2022-09-09T06:45:40;14.02;;;6.28;;
56541;SDS011;42438;53.174;6.730;2022-09-09T06:48:10;10.15;;;5.75;;
56541;SDS011;42438;53.174;6.730;2022-09-09T06:50:41;10.93;;;6.30;;
56541;SDS011;42438;53.174;6.730;2022-09-09T06:53:12;13.75;;;6.68;;
56541;SDS011;42438;53.174;6.730;2022-09-09T06:55:46;12.82;;;6.90;;
56541;SDS011;42438;53.174;6.730;2022-09-09T06:58:17;16.55;;;7.18;;
56541;SDS011;42438;53.174;6.730;2022-09-09T07:00:48;16.15;;;7.50;;
56541;SDS011;42438;53.174;6.730;2022-09-09T07:03:19;15.18;;;6.55;;
56541;SDS011;42438;53.174;6.730;2022-09-09T07:05:53;16.17;;;6.63;;
56541;SDS011;42438;53.174;6.730;2022-09-09T07:08:27;14.75;;;6.82;;
56541;SDS011;42438;53.174;6.730;2022-09-09T07:11:06;16.60;;;6.63;;
56541;SDS011;42438;53.174;6.730;2022-09-09T07:13:37;13.57;;;7.00;;
56541;SDS011;42438;53.174;6.730;2022-09-09T07:16:09;14.48;;;6.43;;
56541;SDS011;42438;53.174;6.730;2022-09-09T07:18:42;12.43;;;6.15;;
56541;SDS011;42438;53.174;6.730;2022-09-09T07:21:13;12.07;;;6.10;;
56541;SDS011;42438;53.174;6.730;2022-09-09T07:23:44;12.90;;;6.40;;
56541;SDS011;42438;53.174;6.730;2022-09-09T07:26:16;13.27;;;6.15;;
56541;SDS011;42438;53.174;6.730;2022-09-09T07:28:49;11.70;;;6.65;;
56541;SDS011;42438;53.174;6.730;2022-09-09T07:31:21;9.48;;;5.57;;
56541;SDS011;42438;53.174;6.730;2022-09-09T07:33:57;10.30;;;6.28;;
56541;SDS011;42438;53.174;6.730;2022-09-09T07:36:31;9.20;;;5.72;;
56541;SDS011;42438;53.174;6.730;2022-09-09T07:39:04;9.45;;;5.68;;
56541;SDS011;42438;53.174;6.730;2022-09-09T07:41:43;17.25;;;6.85;;
56541;SDS011;42438;53.174;6.730;2022-09-09T07:44:21;12.52;;;6.13;;
56541;SDS011;42438;53.174;6.730;2022-09-09T07:46:52;9.32;;;5.35;;
56541;SDS011;42438;53.174;6.730;2022-09-09T07:49:23;11.65;;;6.40;;
56541;SDS011;42438;53.174;6.730;2022-09-09T07:51:54;9.15;;;5.45;;
56541;SDS011;42438;53.174;6.730;2022-09-09T07:54:24;12.27;;;5.57;;
56541;SDS011;42438;53.174;6.730;2022-09-09T07:56:56;9.23;;;5.57;;
56541;SDS011;42438;53.174;6.730;2022-09-09T07:59:26;10.30;;;5.07;;
56541;SDS011;42438;53.174;6.730;2022-09-09T08:01:59;9.48;;;5.40;;
56541;SDS011;42438;53.174;6.730;2022-09-09T08:04:30;9.75;;;5.40;;
56541;SDS011;42438;53.174;6.730;2022-09-09T08:07:01;10.02;;;5.57;;
56541;SDS011;42438;53.174;6.730;2022-09-09T08:09:33;11.05;;;4.95;;
56541;SDS011;42438;53.174;6.730;2022-09-09T08:12:04;10.68;;;5.28;;
56541;SDS011;42438;53.174;6.730;2022-09-09T08:14:36;8.05;;;4.80;;
56541;SDS011;42438;53.174;6.730;2022-09-09T08:17:07;12.85;;;4.95;;
56541;SDS011;42438;53.174;6.730;2022-09-09T08:19:38;9.02;;;4.63;;
56541;SDS011;42438;53.174;6.730;2022-09-09T08:22:09;9.77;;;4.65;;
56541;SDS011;42438;53.174;6.730;2022-09-09T08:24:39;15.02;;;4.68;;
56541;SDS011;42438;53.174;6.730;2022-09-09T08:27:10;8.55;;;5.20;;
56541;SDS011;42438;53.174;6.730;2022-09-09T08:29:41;9.63;;;4.60;;
56541;SDS011;42438;53.174;6.730;2022-09-09T08:32:12;8.10;;;4.35;;
56541;SDS011;42438;53.174;6.730;2022-09-09T08:34:43;12.27;;;4.82;;
56541;SDS011;42438;53.174;6.730;2022-09-09T08:37:13;9.52;;;4.93;;
56541;SDS011;42438;53.174;6.730;2022-09-09T08:39:44;8.38;;;4.28;;
56541;SDS011;42438;53.174;6.730;2022-09-09T08:45:03;7.73;;;4.60;;
56541;SDS011;42438;53.174;6.730;2022-09-09T08:50:45;12.68;;;5.10;;
56541;SDS011;42438;53.174;6.730;2022-09-09T08:53:22;10.45;;;5.22;;
56541;SDS011;42438;53.174;6.730;2022-09-09T08:55:56;12.32;;;5.07;;
56541;SDS011;42438;53.174;6.730;2022-09-09T08:58:33;7.28;;;4.88;;
56541;SDS011;42438;53.174;6.730;2022-09-09T09:03:55;9.60;;;4.70;;
56541;SDS011;42438;53.174;6.730;2022-09-09T09:07:05;7.30;;;4.70;;
56541;SDS011;42438;53.174;6.730;2022-09-09T09:12:39;19.58;;;5.13;;
56541;SDS011;42438;53.174;6.730;2022-09-09T09:15:18;9.50;;;4.47;;
56541;SDS011;42438;53.174;6.730;2022-09-09T09:17:51;7.43;;;5.28;;
56541;SDS011;42438;53.174;6.730;2022-09-09T09:20:32;8.73;;;4.25;;
56541;SDS011;42438;53.174;6.730;2022-09-09T09:23:25;14.45;;;4.75;;
56541;SDS011;42438;53.174;6.730;2022-09-09T09:26:00;14.25;;;4.65;;
56541;SDS011;42438;53.174;6.730;2022-09-09T09:28:31;13.15;;;4.72;;
56541;SDS011;42438;53.174;6.730;2022-09-09T09:31:08;18.45;;;4.90;;
56541;SDS011;42438;53.174;6.730;2022-09-09T09:36:11;5.80;;;3.70;;
56541;SDS011;42438;53.174;6.730;2022-09-09T09:38:58;11.00;;;5.35;;
56541;SDS011;42438;53.174;6.730;2022-09-09T09:41:31;11.23;;;4.28;;
56541;SDS011;42438;53.174;6.730;2022-09-09T09:44:03;10.55;;;4.07;;
56541;SDS011;42438;53.174;6.730;2022-09-09T09:46:34;11.68;;;4.25;;
56541;SDS011;42438;53.174;6.730;2022-09-09T09:49:05;11.93;;;4.10;;
56541;SDS011;42438;53.174;6.730;2022-09-09T09:51:39;10.13;;;4.53;;
56541;SDS011;42438;53.174;6.730;2022-09-09T09:56:45;9.95;;;4.07;;
56541;SDS011;42438;53.174;6.730;2022-09-09T09:59:33;6.63;;;3.43;;
56541;SDS011;42438;53.174;6.730;2022-09-09T10:02:31;10.68;;;3.60;;
56541;SDS011;42438;53.174;6.730;2022-09-09T10:05:16;11.48;;;4.10;;
56541;SDS011;42438;53.174;6.730;2022-09-09T10:08:03;8.30;;;3.42;;
56541;SDS011;42438;53.174;6.730;2022-09-09T10:13:29;11.23;;;3.83;;
56541;SDS011;42438;53.174;6.730;2022-09-09T10:18:58;8.75;;;3.28;;
56541;SDS011;42438;53.174;6.730;2022-09-09T10:30:24;13.63;;;3.28;;
56541;SDS011;42438;53.174;6.730;2022-09-09T10:33:12;9.07;;;3.63;;
56541;SDS011;42438;53.174;6.730;2022-09-09T10:41:36;9.13;;;2.88;;
56541;SDS011;42438;53.174;6.730;2022-09-09T10:55:57;14.00;;;3.00;;
56541;SDS011;42438;53.174;6.730;2022-09-09T10:58:52;8.75;;;2.88;;
56541;SDS011;42438;53.174;6.730;2022-09-09T11:01:29;6.07;;;1.75;;
56541;SDS011;42438;53.174;6.730;2022-09-09T11:04:16;6.55;;;2.03;;
56541;SDS011;42438;53.174;6.730;2022-09-09T11:06:51;10.25;;;2.42;;
56541;SDS011;42438;53.174;6.730;2022-09-09T11:09:26;7.93;;;2.05;;
56541;SDS011;42438;53.174;6.730;2022-09-09T11:12:01;4.68;;;2.13;;
56541;SDS011;42438;53.174;6.730;2022-09-09T11:15:19;8.05;;;2.30;;
56541;SDS011;42438;53.174;6.730;2022-09-09T11:17:40;7.80;;;2.22;;
56541;SDS011;42438;53.174;6.730;2022-09-09T11:20:16;8.98;;;2.25;;
56541;SDS011;42438;53.174;6.730;2022-09-09T11:22:48;3.97;;;1.85;;
56541;SDS011;42438;53.174;6.730;2022-09-09T11:25:37;6.38;;;1.70;;
56541;SDS011;42438;53.174;6.730;2022-09-09T11:42:23;6.45;;;2.08;;
56541;SDS011;42438;53.174;6.730;2022-09-09T11:44:54;4.43;;;1.83;;
56541;SDS011;42438;53.174;6.730;2022-09-09T11:52:46;10.60;;;2.58;;
56541;SDS011;42438;53.174;6.730;2022-09-09T11:55:26;8.15;;;2.13;;
56541;SDS011;42438;53.174;6.730;2022-09-09T12:00:41;5.45;;;2.22;;
56541;SDS011;42438;53.174;6.730;2022-09-09T12:09:22;5.70;;;1.92;;
56541;SDS011;42438;53.174;6.730;2022-09-09T12:14:43;4.65;;;1.70;;
56541;SDS011;42438;53.174;6.730;2022-09-09T12:17:26;8.35;;;2.13;;
56541;SDS011;42438;53.174;6.730;2022-09-09T12:28:22;8.25;;;2.00;;
56541;SDS011;42438;53.174;6.730;2022-09-09T12:31:15;8.13;;;2.30;;
56541;SDS011;42438;53.174;6.730;2022-09-09T12:34:02;4.85;;;1.60;;
56541;SDS011;42438;53.174;6.730;2022-09-09T12:36:56;6.03;;;1.55;;
56541;SDS011;42438;53.174;6.730;2022-09-09T12:39:40;4.68;;;1.60;;
56541;SDS011;42438;53.174;6.730;2022-09-09T12:42:20;4.88;;;1.60;;
56541;SDS011;42438;53.174;6.730;2022-09-09T12:44:52;3.95;;;1.58;;
56541;SDS011;42438;53.174;6.730;2022-09-09T12:47:32;8.32;;;2.28;;
56541;SDS011;42438;53.174;6.730;2022-09-09T12:50:16;4.18;;;1.58;;
56541;SDS011;42438;53.174;6.730;2022-09-09T12:52:50;5.63;;;1.70;;
56541;SDS011;42438;53.174;6.730;2022-09-09T12:55:28;6.07;;;1.80;;
56541;SDS011;42438;53.174;6.730;2022-09-09T12:58:03;4.53;;;1.70;;
56541;SDS011;42438;53.174;6.730;2022-09-09T13:00:35;5.88;;;2.15;;
56541;SDS011;42438;53.174;6.730;2022-09-09T13:03:16;6.82;;;1.50;;
56541;SDS011;42438;53.174;6.730;2022-09-09T13:05:48;5.38;;;1.80;;
56541;SDS011;42438;53.174;6.730;2022-09-09T13:08:19;6.22;;;1.75;;
56541;SDS011;42438;53.174;6.730;2022-09-09T13:11:00;6.32;;;1.90;;
56541;SDS011;42438;53.174;6.730;2022-09-09T13:19:08;5.53;;;2.08;;
56541;SDS011;42438;53.174;6.730;2022-09-09T13:21:43;3.97;;;1.55;;
56541;SDS011;42438;53.174;6.730;2022-09-09T13:24:31;6.75;;;1.73;;
56541;SDS011;42438;53.174;6.730;2022-09-09T13:27:05;6.40;;;1.83;;
56541;SDS011;42438;53.174;6.730;2022-09-09T13:30:01;5.32;;;1.38;;
56541;SDS011;42438;53.174;6.730;2022-09-09T13:33:02;5.28;;;1.67;;
56541;SDS011;42438;53.174;6.730;2022-09-09T13:36:36;3.85;;;1.65;;
56541;SDS011;42438;53.174;6.730;2022-09-09T13:42:05;7.05;;;1.70;;
56541;SDS011;42438;53.174;6.730;2022-09-09T13:44:23;6.22;;;1.80;;
56541;SDS011;42438;53.174;6.730;2022-09-09T13:49:33;6.40;;;2.60;;
56541;SDS011;42438;53.174;6.730;2022-09-09T13:52:14;6.85;;;2.03;;
56541;SDS011;42438;53.174;6.730;2022-09-09T13:54:49;8.50;;;1.77;;
56541;SDS011;42438;53.174;6.730;2022-09-09T13:57:22;4.40;;;1.10;;
56541;SDS011;42438;53.174;6.730;2022-09-09T13:59:55;4.43;;;1.20;;
56541;SDS011;42438;53.174;6.730;2022-09-09T14:02:26;5.03;;;1.30;;
56541;SDS011;42438;53.174;6.730;2022-09-09T14:04:56;6.18;;;1.40;;
56541;SDS011;42438;53.174;6.730;2022-09-09T14:07:27;6.95;;;2.20;;
56541;SDS011;42438;53.174;6.730;2022-09-09T14:09:58;6.28;;;1.60;;
56541;SDS011;42438;53.174;6.730;2022-09-09T14:12:30;4.63;;;1.80;;
56541;SDS011;42438;53.174;6.730;2022-09-09T14:15:00;4.65;;;1.75;;
56541;SDS011;42438;53.174;6.730;2022-09-09T14:17:32;4.13;;;1.45;;
56541;SDS011;42438;53.174;6.730;2022-09-09T14:20:03;4.20;;;1.40;;
56541;SDS011;42438;53.174;6.730;2022-09-09T14:22:39;11.70;;;2.15;;
56541;SDS011;42438;53.174;6.730;2022-09-09T14:25:09;4.20;;;1.77;;
56541;SDS011;42438;53.174;6.730;2022-09-09T14:27:41;5.47;;;1.92;;
56541;SDS011;42438;53.174;6.730;2022-09-09T14:30:12;5.45;;;1.50;;
56541;SDS011;42438;53.174;6.730;2022-09-09T14:32:43;7.57;;;1.90;;
56541;SDS011;42438;53.174;6.730;2022-09-09T14:35:13;7.68;;;2.35;;
56541;SDS011;42438;53.174;6.730;2022-09-09T14:37:44;5.82;;;1.63;;
56541;SDS011;42438;53.174;6.730;2022-09-09T14:40:15;5.88;;;1.88;;
56541;SDS011;42438;53.174;6.730;2022-09-09T14:42:46;3.47;;;1.50;;
56541;SDS011;42438;53.174;6.730;2022-09-09T14:45:17;5.18;;;1.80;;
56541;SDS011;42438;53.174;6.730;2022-09-09T14:47:49;5.45;;;1.60;;
56541;SDS011;42438;53.174;6.730;2022-09-09T14:50:19;5.80;;;2.03;;
56541;SDS011;42438;53.174;6.730;2022-09-09T14:52:50;4.55;;;1.70;;
56541;SDS011;42438;53.174;6.730;2022-09-09T14:55:21;3.75;;;1.50;;
56541;SDS011;42438;53.174;6.730;2022-09-09T14:57:52;4.95;;;2.42;;
56541;SDS011;42438;53.174;6.730;2022-09-09T15:00:22;3.50;;;1.70;;
56541;SDS011;42438;53.174;6.730;2022-09-09T15:02:54;5.50;;;1.73;;
56541;SDS011;42438;53.174;6.730;2022-09-09T15:05:25;6.40;;;2.13;;
56541;SDS011;42438;53.174;6.730;2022-09-09T15:07:58;4.88;;;2.03;;
56541;SDS011;42438;53.174;6.730;2022-09-09T15:10:28;6.55;;;2.00;;
56541;SDS011;42438;53.174;6.730;2022-09-09T15:13:01;4.95;;;1.63;;
56541;SDS011;42438;53.174;6.730;2022-09-09T15:15:32;4.97;;;1.40;;
56541;SDS011;42438;53.174;6.730;2022-09-09T15:18:04;3.38;;;1.70;;
56541;SDS011;42438;53.174;6.730;2022-09-09T15:20:35;5.05;;;1.58;;
56541;SDS011;42438;53.174;6.730;2022-09-09T15:23:07;4.68;;;1.60;;
56541;SDS011;42438;53.174;6.730;2022-09-09T15:25:39;3.38;;;1.30;;
56541;SDS011;42438;53.174;6.730;2022-09-09T15:28:22;2.67;;;1.00;;
56541;SDS011;42438;53.174;6.730;2022-09-09T15:30:53;2.28;;;0.93;;
56541;SDS011;42438;53.174;6.730;2022-09-09T15:33:24;2.63;;;1.00;;
56541;SDS011;42438;53.174;6.730;2022-09-09T15:35:55;2.03;;;0.90;;
56541;SDS011;42438;53.174;6.730;2022-09-09T15:38:25;2.33;;;0.85;;
56541;SDS011;42438;53.174;6.730;2022-09-09T15:40:57;3.60;;;0.93;;
56541;SDS011;42438;53.174;6.730;2022-09-09T15:43:28;2.80;;;0.90;;
56541;SDS011;42438;53.174;6.730;2022-09-09T15:46:00;1.50;;;0.80;;
56541;SDS011;42438;53.174;6.730;2022-09-09T15:48:51;1.70;;;0.82;;
56541;SDS011;42438;53.174;6.730;2022-09-09T15:51:24;1.95;;;1.05;;
56541;SDS011;42438;53.174;6.730;2022-09-09T15:53:56;2.42;;;0.80;;
56541;SDS011;42438;53.174;6.730;2022-09-09T15:56:28;2.88;;;1.13;;
56541;SDS011;42438;53.174;6.730;2022-09-09T15:59:03;3.33;;;1.13;;
56541;SDS011;42438;53.174;6.730;2022-09-09T16:01:34;2.33;;;1.13;;
56541;SDS011;42438;53.174;6.730;2022-09-09T16:04:05;4.40;;;1.48;;
56541;SDS011;42438;53.174;6.730;2022-09-09T16:06:36;3.10;;;1.30;;
56541;SDS011;42438;53.174;6.730;2022-09-09T16:09:07;3.90;;;1.30;;
56541;SDS011;42438;53.174;6.730;2022-09-09T16:11:38;3.83;;;1.27;;
56541;SDS011;42438;53.174;6.730;2022-09-09T16:14:09;2.78;;;1.20;;
56541;SDS011;42438;53.174;6.730;2022-09-09T16:16:41;6.20;;;1.60;;
56541;SDS011;42438;53.174;6.730;2022-09-09T16:19:12;2.95;;;1.17;;
56541;SDS011;42438;53.174;6.730;2022-09-09T16:21:44;5.63;;;1.42;;
56541;SDS011;42438;53.174;6.730;2022-09-09T16:24:17;5.18;;;1.30;;
56541;SDS011;42438;53.174;6.730;2022-09-09T16:26:50;3.20;;;1.35;;
56541;SDS011;42438;53.174;6.730;2022-09-09T16:31:54;4.07;;;1.30;;
56541;SDS011;42438;53.174;6.730;2022-09-09T16:34:25;2.95;;;1.15;;
56541;SDS011;42438;53.174;6.730;2022-09-09T16:36:55;3.80;;;1.63;;
56541;SDS011;42438;53.174;6.730;2022-09-09T16:39:26;2.60;;;1.33;;
56541;SDS011;42438;53.174;6.730;2022-09-09T16:41:57;3.20;;;1.35;;
56541;SDS011;42438;53.174;6.730;2022-09-09T16:44:27;4.22;;;1.60;;
56541;SDS011;42438;53.174;6.730;2022-09-09T16:46:58;2.83;;;1.52;;
56541;SDS011;42438;53.174;6.730;2022-09-09T16:49:30;3.30;;;1.70;;
56541;SDS011;42438;53.174;6.730;2022-09-09T16:52:00;4.32;;;1.70;;
56541;SDS011;42438;53.174;6.730;2022-09-09T16:54:31;3.75;;;1.55;;
56541;SDS011;42438;53.174;6.730;2022-09-09T16:57:02;2.83;;;1.75;;
56541;SDS011;42438;53.174;6.730;2022-09-09T16:59:32;5.00;;;1.80;;
56541;SDS011;42438;53.174;6.730;2022-09-09T17:02:03;2.88;;;1.90;;
56541;SDS011;42438;53.174;6.730;2022-09-09T17:04:34;5.45;;;1.85;;
56541;SDS011;42438;53.174;6.730;2022-09-09T17:07:05;3.15;;;1.80;;
56541;SDS011;42438;53.174;6.730;2022-09-09T17:09:36;5.22;;;1.80;;
56541;SDS011;42438;53.174;6.730;2022-09-09T17:12:06;3.35;;;1.60;;
56541;SDS011;42438;53.174;6.730;2022-09-09T17:14:38;6.13;;;1.70;;
56541;SDS011;42438;53.174;6.730;2022-09-09T17:17:09;4.10;;;2.03;;
56541;SDS011;42438;53.174;6.730;2022-09-09T17:19:39;4.05;;;2.00;;
56541;SDS011;42438;53.174;6.730;2022-09-09T17:22:10;5.35;;;2.10;;
56541;SDS011;42438;53.174;6.730;2022-09-09T17:24:41;5.13;;;2.20;;
56541;SDS011;42438;53.174;6.730;2022-09-09T17:27:13;3.90;;;1.98;;
56541;SDS011;42438;53.174;6.730;2022-09-09T17:29:44;4.95;;;2.17;;
56541;SDS011;42438;53.174;6.730;2022-09-09T17:32:15;5.40;;;2.42;;
56541;SDS011;42438;53.174;6.730;2022-09-09T17:34:45;3.70;;;1.90;;
56541;SDS011;42438;53.174;6.730;2022-09-09T17:37:16;5.55;;;2.10;;
56541;SDS011;42438;53.174;6.730;2022-09-09T17:39:46;3.85;;;2.00;;
56541;SDS011;42438;53.174;6.730;2022-09-09T17:42:17;4.10;;;2.08;;
56541;SDS011;42438;53.174;6.730;2022-09-09T17:44:48;4.28;;;2.28;;
56541;SDS011;42438;53.174;6.730;2022-09-09T17:47:18;4.90;;;2.20;;
56541;SDS011;42438;53.174;6.730;2022-09-09T17:49:50;4.60;;;1.90;;
56541;SDS011;42438;53.174;6.730;2022-09-09T17:52:20;3.83;;;1.70;;